sensor_id;sensor_type;location;lat;lon;timestamp;temperature;humidity
56861;DHT22;42744;51.094;3.490;2022-12-10T00:00:21;0.30;99.90
56861;DHT22;42744;51.094;3.490;2022-12-10T00:02:47;0.30;99.90
56861;DHT22;42744;51.094;3.490;2022-12-10T00:05:13;0.30;99.90
56861;DHT22;42744;51.094;3.490;2022-12-10T00:07:39;0.20;99.90
56861;DHT22;42744;51.094;3.490;2022-12-10T00:10:08;0.20;99.90
56861;DHT22;42744;51.094;3.490;2022-12-10T00:12:34;0.20;99.90
56861;DHT22;42744;51.094;3.490;2022-12-10T00:15:00;0.20;99.90
56861;DHT22;42744;51.094;3.490;2022-12-10T00:17:29;0.20;99.90
56861;DHT22;42744;51.094;3.490;2022-12-10T00:19:55;0.20;99.90
56861;DHT22;42744;51.094;3.490;2022-12-10T00:22:21;0.20;99.90
56861;DHT22;42744;51.094;3.490;2022-12-10T00:24:47;0.20;99.90
56861;DHT22;42744;51.094;3.490;2022-12-10T00:27:13;0.20;99.90
56861;DHT22;42744;51.094;3.490;2022-12-10T00:29:39;0.20;99.90
56861;DHT22;42744;51.094;3.490;2022-12-10T00:32:06;0.20;99.90
56861;DHT22;42744;51.094;3.490;2022-12-10T00:34:32;0.20;99.90
56861;DHT22;42744;51.094;3.490;2022-12-10T00:36:57;0.20;99.90
56861;DHT22;42744;51.094;3.490;2022-12-10T00:39:24;0.30;99.90
56861;DHT22;42744;51.094;3.490;2022-12-10T00:41:50;0.30;99.90
56861;DHT22;42744;51.094;3.490;2022-12-10T00:44:17;0.30;99.90
56861;DHT22;42744;51.094;3.490;2022-12-10T00:46:43;0.30;99.90
56861;DHT22;42744;51.094;3.490;2022-12-10T00:49:10;0.40;99.90
56861;DHT22;42744;51.094;3.490;2022-12-10T00:51:36;0.30;99.90
56861;DHT22;42744;51.094;3.490;2022-12-10T00:54:02;0.40;99.90
56861;DHT22;42744;51.094;3.490;2022-12-10T00:56:30;0.40;99.90
56861;DHT22;42744;51.094;3.490;2022-12-10T00:58:58;0.40;99.90
56861;DHT22;42744;51.094;3.490;2022-12-10T01:01:37;0.40;99.90
56861;DHT22;42744;51.094;3.490;2022-12-10T01:04:11;0.40;99.90
56861;DHT22;42744;51.094;3.490;2022-12-10T01:06:50;0.30;99.90
56861;DHT22;42744;51.094;3.490;2022-12-10T01:09:22;0.40;99.90
56861;DHT22;42744;51.094;3.490;2022-12-10T01:11:54;0.40;99.90
56861;DHT22;42744;51.094;3.490;2022-12-10T01:14:29;0.40;99.90
56861;DHT22;42744;51.094;3.490;2022-12-10T01:16:57;0.40;99.90
56861;DHT22;42744;51.094;3.490;2022-12-10T01:19:24;0.40;99.90
56861;DHT22;42744;51.094;3.490;2022-12-10T01:21:54;0.40;99.90
56861;DHT22;42744;51.094;3.490;2022-12-10T01:24:21;0.50;99.90
56861;DHT22;42744;51.094;3.490;2022-12-10T01:26:47;0.50;99.90
56861;DHT22;42744;51.094;3.490;2022-12-10T01:29:16;0.50;99.90
56861;DHT22;42744;51.094;3.490;2022-12-10T01:31:43;0.60;99.90
56861;DHT22;42744;51.094;3.490;2022-12-10T01:34:12;0.60;99.90
56861;DHT22;42744;51.094;3.490;2022-12-10T01:36:41;0.60;99.90
56861;DHT22;42744;51.094;3.490;2022-12-10T01:39:13;0.60;99.90
56861;DHT22;42744;51.094;3.490;2022-12-10T01:46:45;0.70;99.90
56861;DHT22;42744;51.094;3.490;2022-12-10T01:49:16;0.70;99.90
56861;DHT22;42744;51.094;3.490;2022-12-10T01:51:46;0.70;99.90
56861;DHT22;42744;51.094;3.490;2022-12-10T01:54:27;0.80;99.90
56861;DHT22;42744;51.094;3.490;2022-12-10T01:57:09;0.70;99.90
56861;DHT22;42744;51.094;3.490;2022-12-10T01:59:38;0.80;99.90
56861;DHT22;42744;51.094;3.490;2022-12-10T02:08:12;0.80;99.90
56861;DHT22;42744;51.094;3.490;2022-12-10T02:13:58;0.80;99.90
56861;DHT22;42744;51.094;3.490;2022-12-10T02:21:57;0.80;99.90
56861;DHT22;42744;51.094;3.490;2022-12-10T02:24:30;0.80;99.90
56861;DHT22;42744;51.094;3.490;2022-12-10T02:29:31;0.80;99.90
56861;DHT22;42744;51.094;3.490;2022-12-10T02:32:08;0.80;99.90
56861;DHT22;42744;51.094;3.490;2022-12-10T02:34:50;0.80;99.90
56861;DHT22;42744;51.094;3.490;2022-12-10T02:37:24;0.90;99.90
56861;DHT22;42744;51.094;3.490;2022-12-10T02:39:55;0.90;99.90
56861;DHT22;42744;51.094;3.490;2022-12-10T02:42:26;0.90;99.90
56861;DHT22;42744;51.094;3.490;2022-12-10T02:44:54;0.90;99.90
56861;DHT22;42744;51.094;3.490;2022-12-10T02:47:22;0.90;99.90
56861;DHT22;42744;51.094;3.490;2022-12-10T02:49:52;0.90;99.90
56861;DHT22;42744;51.094;3.490;2022-12-10T02:52:20;0.90;99.90
56861;DHT22;42744;51.094;3.490;2022-12-10T02:54:49;0.90;99.90
56861;DHT22;42744;51.094;3.490;2022-12-10T03:05:56;0.90;99.90
56861;DHT22;42744;51.094;3.490;2022-12-10T03:08:48;0.90;99.90
56861;DHT22;42744;51.094;3.490;2022-12-10T03:11:17;0.90;99.90
56861;DHT22;42744;51.094;3.490;2022-12-10T03:14:03;0.90;99.90
56861;DHT22;42744;51.094;3.490;2022-12-10T03:16:42;0.90;99.90
56861;DHT22;42744;51.094;3.490;2022-12-10T03:19:15;0.90;99.90
56861;DHT22;42744;51.094;3.490;2022-12-10T03:21:43;0.90;99.90
56861;DHT22;42744;51.094;3.490;2022-12-10T03:24:10;0.80;99.90
56861;DHT22;42744;51.094;3.490;2022-12-10T03:26:38;0.90;99.90
56861;DHT22;42744;51.094;3.490;2022-12-10T03:29:08;0.90;99.90
56861;DHT22;42744;51.094;3.490;2022-12-10T03:31:38;0.90;99.90
56861;DHT22;42744;51.094;3.490;2022-12-10T03:34:05;0.90;99.90
56861;DHT22;42744;51.094;3.490;2022-12-10T03:36:33;0.90;99.90
56861;DHT22;42744;51.094;3.490;2022-12-10T03:39:01;0.80;99.90
56861;DHT22;42744;51.094;3.490;2022-12-10T03:41:27;0.80;99.90
56861;DHT22;42744;51.094;3.490;2022-12-10T03:43:55;0.80;99.90
56861;DHT22;42744;51.094;3.490;2022-12-10T03:46:23;0.80;99.90
56861;DHT22;42744;51.094;3.490;2022-12-10T03:48:50;0.80;99.90
56861;DHT22;42744;51.094;3.490;2022-12-10T03:51:17;0.80;99.90
56861;DHT22;42744;51.094;3.490;2022-12-10T03:53:43;0.90;99.90
56861;DHT22;42744;51.094;3.490;2022-12-10T03:56:08;0.80;99.90
56861;DHT22;42744;51.094;3.490;2022-12-10T03:58:35;0.90;99.90
56861;DHT22;42744;51.094;3.490;2022-12-10T04:01:03;0.90;99.90
56861;DHT22;42744;51.094;3.490;2022-12-10T04:03:29;0.90;99.90
56861;DHT22;42744;51.094;3.490;2022-12-10T04:06:01;0.90;99.90
56861;DHT22;42744;51.094;3.490;2022-12-10T04:08:28;0.90;99.90
56861;DHT22;42744;51.094;3.490;2022-12-10T04:10:54;0.80;99.90
56861;DHT22;42744;51.094;3.490;2022-12-10T04:13:20;0.80;99.90
56861;DHT22;42744;51.094;3.490;2022-12-10T04:16:07;0.80;99.90
56861;DHT22;42744;51.094;3.490;2022-12-10T04:18:51;0.80;99.90
56861;DHT22;42744;51.094;3.490;2022-12-10T04:21:22;0.80;99.90
56861;DHT22;42744;51.094;3.490;2022-12-10T04:24:10;0.80;99.90
56861;DHT22;42744;51.094;3.490;2022-12-10T04:26:57;0.80;99.90
56861;DHT22;42744;51.094;3.490;2022-12-10T04:29:26;0.80;99.90
56861;DHT22;42744;51.094;3.490;2022-12-10T04:31:53;0.80;99.90
56861;DHT22;42744;51.094;3.490;2022-12-10T04:34:21;0.80;99.90
56861;DHT22;42744;51.094;3.490;2022-12-10T04:36:47;0.80;99.90
56861;DHT22;42744;51.094;3.490;2022-12-10T04:39:13;0.80;99.90
56861;DHT22;42744;51.094;3.490;2022-12-10T04:41:41;0.80;99.90
56861;DHT22;42744;51.094;3.490;2022-12-10T04:44:08;0.80;99.90
56861;DHT22;42744;51.094;3.490;2022-12-10T04:46:34;0.80;99.90
56861;DHT22;42744;51.094;3.490;2022-12-10T04:49:01;0.80;99.90
56861;DHT22;42744;51.094;3.490;2022-12-10T04:51:27;0.80;99.90
56861;DHT22;42744;51.094;3.490;2022-12-10T04:53:53;0.80;99.90
56861;DHT22;42744;51.094;3.490;2022-12-10T04:56:22;0.80;99.90
56861;DHT22;42744;51.094;3.490;2022-12-10T04:58:48;0.80;99.90
56861;DHT22;42744;51.094;3.490;2022-12-10T05:01:14;0.80;99.90
56861;DHT22;42744;51.094;3.490;2022-12-10T05:03:41;0.80;99.90
56861;DHT22;42744;51.094;3.490;2022-12-10T05:06:10;0.80;99.90
56861;DHT22;42744;51.094;3.490;2022-12-10T05:08:37;0.70;99.90
56861;DHT22;42744;51.094;3.490;2022-12-10T05:11:06;0.70;99.90
56861;DHT22;42744;51.094;3.490;2022-12-10T05:13:32;0.70;99.90
56861;DHT22;42744;51.094;3.490;2022-12-10T05:16:04;0.70;99.90
56861;DHT22;42744;51.094;3.490;2022-12-10T05:18:31;0.70;99.90
56861;DHT22;42744;51.094;3.490;2022-12-10T05:21:01;0.70;99.90
56861;DHT22;42744;51.094;3.490;2022-12-10T05:23:27;0.70;99.90
56861;DHT22;42744;51.094;3.490;2022-12-10T05:26:11;0.70;99.90
56861;DHT22;42744;51.094;3.490;2022-12-10T05:28:44;0.70;99.90
56861;DHT22;42744;51.094;3.490;2022-12-10T05:31:20;0.70;99.90
56861;DHT22;42744;51.094;3.490;2022-12-10T05:33:47;0.70;99.90
56861;DHT22;42744;51.094;3.490;2022-12-10T05:36:17;0.70;99.90
56861;DHT22;42744;51.094;3.490;2022-12-10T05:38:44;0.70;99.90
56861;DHT22;42744;51.094;3.490;2022-12-10T05:41:37;0.70;99.90
56861;DHT22;42744;51.094;3.490;2022-12-10T05:44:04;0.70;99.90
56861;DHT22;42744;51.094;3.490;2022-12-10T05:46:32;0.70;99.90
56861;DHT22;42744;51.094;3.490;2022-12-10T05:48:59;0.70;99.90
56861;DHT22;42744;51.094;3.490;2022-12-10T05:51:28;0.70;99.90
56861;DHT22;42744;51.094;3.490;2022-12-10T05:53:57;0.70;99.90
56861;DHT22;42744;51.094;3.490;2022-12-10T05:56:24;0.70;99.90
56861;DHT22;42744;51.094;3.490;2022-12-10T05:58:57;0.70;99.90
56861;DHT22;42744;51.094;3.490;2022-12-10T06:01:26;0.70;99.90
56861;DHT22;42744;51.094;3.490;2022-12-10T06:03:56;0.70;99.90
56861;DHT22;42744;51.094;3.490;2022-12-10T06:06:24;0.70;99.90
56861;DHT22;42744;51.094;3.490;2022-12-10T06:08:50;0.70;99.90
56861;DHT22;42744;51.094;3.490;2022-12-10T06:11:17;0.60;99.90
56861;DHT22;42744;51.094;3.490;2022-12-10T06:13:43;0.60;99.90
56861;DHT22;42744;51.094;3.490;2022-12-10T06:16:12;0.60;99.90
56861;DHT22;42744;51.094;3.490;2022-12-10T06:18:39;0.60;99.90
56861;DHT22;42744;51.094;3.490;2022-12-10T06:21:13;0.60;99.90
56861;DHT22;42744;51.094;3.490;2022-12-10T06:23:41;0.60;99.90
56861;DHT22;42744;51.094;3.490;2022-12-10T06:26:09;0.60;99.90
56861;DHT22;42744;51.094;3.490;2022-12-10T06:28:36;0.60;99.90
56861;DHT22;42744;51.094;3.490;2022-12-10T06:31:03;0.60;99.90
56861;DHT22;42744;51.094;3.490;2022-12-10T06:33:29;0.60;99.90
56861;DHT22;42744;51.094;3.490;2022-12-10T06:35:55;0.60;99.90
56861;DHT22;42744;51.094;3.490;2022-12-10T06:38:21;0.60;99.90
56861;DHT22;42744;51.094;3.490;2022-12-10T06:40:47;0.60;99.90
56861;DHT22;42744;51.094;3.490;2022-12-10T06:43:13;0.60;99.90
56861;DHT22;42744;51.094;3.490;2022-12-10T06:45:40;0.60;99.90
56861;DHT22;42744;51.094;3.490;2022-12-10T06:48:07;0.60;99.90
56861;DHT22;42744;51.094;3.490;2022-12-10T06:50:34;0.60;99.90
56861;DHT22;42744;51.094;3.490;2022-12-10T06:53:00;0.70;99.90
56861;DHT22;42744;51.094;3.490;2022-12-10T06:55:26;0.70;99.90
56861;DHT22;42744;51.094;3.490;2022-12-10T06:57:53;0.70;99.90
56861;DHT22;42744;51.094;3.490;2022-12-10T07:00:20;0.70;99.90
56861;DHT22;42744;51.094;3.490;2022-12-10T07:02:47;0.70;99.90
56861;DHT22;42744;51.094;3.490;2022-12-10T07:05:13;0.70;99.90
56861;DHT22;42744;51.094;3.490;2022-12-10T07:07:39;0.70;99.90
56861;DHT22;42744;51.094;3.490;2022-12-10T07:10:06;0.70;99.90
56861;DHT22;42744;51.094;3.490;2022-12-10T07:12:34;0.80;99.90
56861;DHT22;42744;51.094;3.490;2022-12-10T07:15:00;0.80;99.90
56861;DHT22;42744;51.094;3.490;2022-12-10T07:17:37;0.70;99.90
56861;DHT22;42744;51.094;3.490;2022-12-10T07:20:14;0.80;99.90
56861;DHT22;42744;51.094;3.490;2022-12-10T07:22:42;0.70;99.90
56861;DHT22;42744;51.094;3.490;2022-12-10T07:25:08;0.80;99.90
56861;DHT22;42744;51.094;3.490;2022-12-10T07:27:35;0.80;99.90
56861;DHT22;42744;51.094;3.490;2022-12-10T07:30:02;0.80;99.90
56861;DHT22;42744;51.094;3.490;2022-12-10T07:32:28;0.80;99.90
56861;DHT22;42744;51.094;3.490;2022-12-10T07:34:54;0.80;99.90
56861;DHT22;42744;51.094;3.490;2022-12-10T07:37:24;0.80;99.90
56861;DHT22;42744;51.094;3.490;2022-12-10T07:39:52;0.80;99.90
56861;DHT22;42744;51.094;3.490;2022-12-10T07:42:19;0.80;99.90
56861;DHT22;42744;51.094;3.490;2022-12-10T07:44:44;0.80;99.90
56861;DHT22;42744;51.094;3.490;2022-12-10T07:47:11;0.80;99.90
56861;DHT22;42744;51.094;3.490;2022-12-10T07:49:37;0.80;99.90
56861;DHT22;42744;51.094;3.490;2022-12-10T07:52:07;0.90;99.90
56861;DHT22;42744;51.094;3.490;2022-12-10T07:54:35;0.90;99.90
56861;DHT22;42744;51.094;3.490;2022-12-10T07:57:02;0.90;99.90
56861;DHT22;42744;51.094;3.490;2022-12-10T07:59:28;0.90;99.90
56861;DHT22;42744;51.094;3.490;2022-12-10T08:01:54;0.90;99.90
56861;DHT22;42744;51.094;3.490;2022-12-10T08:04:20;0.90;99.90
56861;DHT22;42744;51.094;3.490;2022-12-10T08:07:18;0.90;99.90
56861;DHT22;42744;51.094;3.490;2022-12-10T08:09:44;1.00;99.90
56861;DHT22;42744;51.094;3.490;2022-12-10T08:12:10;1.00;99.90
56861;DHT22;42744;51.094;3.490;2022-12-10T08:14:36;1.00;99.90
56861;DHT22;42744;51.094;3.490;2022-12-10T08:17:02;1.00;99.90
56861;DHT22;42744;51.094;3.490;2022-12-10T08:19:29;1.00;99.90
56861;DHT22;42744;51.094;3.490;2022-12-10T08:21:55;1.00;99.90
56861;DHT22;42744;51.094;3.490;2022-12-10T08:24:41;1.00;99.90
56861;DHT22;42744;51.094;3.490;2022-12-10T08:27:18;1.00;99.90
56861;DHT22;42744;51.094;3.490;2022-12-10T08:29:44;1.00;99.90
56861;DHT22;42744;51.094;3.490;2022-12-10T08:32:10;1.10;99.90
56861;DHT22;42744;51.094;3.490;2022-12-10T08:34:37;1.10;99.90
56861;DHT22;42744;51.094;3.490;2022-12-10T08:37:03;1.10;99.90
56861;DHT22;42744;51.094;3.490;2022-12-10T08:39:43;1.10;99.90
56861;DHT22;42744;51.094;3.490;2022-12-10T08:42:09;1.10;99.90
56861;DHT22;42744;51.094;3.490;2022-12-10T08:44:35;1.10;99.90
56861;DHT22;42744;51.094;3.490;2022-12-10T08:47:01;1.10;99.90
56861;DHT22;42744;51.094;3.490;2022-12-10T08:49:34;1.10;99.90
56861;DHT22;42744;51.094;3.490;2022-12-10T08:52:00;1.10;99.90
56861;DHT22;42744;51.094;3.490;2022-12-10T08:54:26;1.10;99.90
56861;DHT22;42744;51.094;3.490;2022-12-10T08:56:52;1.10;99.90
56861;DHT22;42744;51.094;3.490;2022-12-10T08:59:21;1.10;99.90
56861;DHT22;42744;51.094;3.490;2022-12-10T09:02:03;1.10;99.90
56861;DHT22;42744;51.094;3.490;2022-12-10T09:05:04;1.20;99.90
56861;DHT22;42744;51.094;3.490;2022-12-10T09:07:30;1.20;99.90
56861;DHT22;42744;51.094;3.490;2022-12-10T09:10:02;1.20;99.90
56861;DHT22;42744;51.094;3.490;2022-12-10T09:12:28;1.20;99.90
56861;DHT22;42744;51.094;3.490;2022-12-10T09:15:13;1.20;99.90
56861;DHT22;42744;51.094;3.490;2022-12-10T09:17:40;1.20;99.90
56861;DHT22;42744;51.094;3.490;2022-12-10T09:23:25;1.30;99.90
56861;DHT22;42744;51.094;3.490;2022-12-10T09:25:51;1.30;99.90
56861;DHT22;42744;51.094;3.490;2022-12-10T09:28:17;1.30;99.90
56861;DHT22;42744;51.094;3.490;2022-12-10T09:30:43;1.30;99.90
56861;DHT22;42744;51.094;3.490;2022-12-10T09:33:10;1.30;99.90
56861;DHT22;42744;51.094;3.490;2022-12-10T09:35:40;1.30;99.90
56861;DHT22;42744;51.094;3.490;2022-12-10T09:38:10;1.40;99.90
56861;DHT22;42744;51.094;3.490;2022-12-10T09:40:42;1.50;99.90
56861;DHT22;42744;51.094;3.490;2022-12-10T09:43:19;1.50;99.90
56861;DHT22;42744;51.094;3.490;2022-12-10T09:54:41;1.70;99.90
56861;DHT22;42744;51.094;3.490;2022-12-10T09:57:19;1.60;99.90
56861;DHT22;42744;51.094;3.490;2022-12-10T09:59:49;1.70;99.90
56861;DHT22;42744;51.094;3.490;2022-12-10T10:04:45;1.70;99.90
56861;DHT22;42744;51.094;3.490;2022-12-10T10:07:25;1.70;99.90
56861;DHT22;42744;51.094;3.490;2022-12-10T10:09:58;1.80;99.90
56861;DHT22;42744;51.094;3.490;2022-12-10T10:12:33;1.80;99.90
56861;DHT22;42744;51.094;3.490;2022-12-10T10:15:24;1.80;99.90
56861;DHT22;42744;51.094;3.490;2022-12-10T10:17:53;1.90;99.90
56861;DHT22;42744;51.094;3.490;2022-12-10T10:20:25;2.00;99.90
56861;DHT22;42744;51.094;3.490;2022-12-10T10:22:53;2.10;99.90
56861;DHT22;42744;51.094;3.490;2022-12-10T10:26:02;2.00;99.90
56861;DHT22;42744;51.094;3.490;2022-12-10T10:28:28;2.10;99.90
56861;DHT22;42744;51.094;3.490;2022-12-10T10:30:54;2.10;99.90
56861;DHT22;42744;51.094;3.490;2022-12-10T10:33:21;2.20;99.90
56861;DHT22;42744;51.094;3.490;2022-12-10T10:35:57;2.20;99.90
56861;DHT22;42744;51.094;3.490;2022-12-10T10:38:29;2.20;99.90
56861;DHT22;42744;51.094;3.490;2022-12-10T10:40:58;2.30;99.90
56861;DHT22;42744;51.094;3.490;2022-12-10T10:43:27;2.20;99.90
56861;DHT22;42744;51.094;3.490;2022-12-10T10:46:02;2.30;99.90
56861;DHT22;42744;51.094;3.490;2022-12-10T10:48:31;2.30;99.90
56861;DHT22;42744;51.094;3.490;2022-12-10T10:51:14;2.30;99.90
56861;DHT22;42744;51.094;3.490;2022-12-10T10:58:38;2.50;99.90
56861;DHT22;42744;51.094;3.490;2022-12-10T11:01:11;2.50;99.90
56861;DHT22;42744;51.094;3.490;2022-12-10T11:03:46;2.40;99.90
56861;DHT22;42744;51.094;3.490;2022-12-10T11:06:13;2.50;99.90
56861;DHT22;42744;51.094;3.490;2022-12-10T11:08:42;2.60;99.90
56861;DHT22;42744;51.094;3.490;2022-12-10T11:13:43;2.80;99.90
56861;DHT22;42744;51.094;3.490;2022-12-10T11:19:01;2.80;99.90
56861;DHT22;42744;51.094;3.490;2022-12-10T11:21:30;2.80;99.90
56861;DHT22;42744;51.094;3.490;2022-12-10T11:23:58;2.80;99.90
56861;DHT22;42744;51.094;3.490;2022-12-10T11:26:46;2.80;99.90
56861;DHT22;42744;51.094;3.490;2022-12-10T11:29:36;2.80;99.90
56861;DHT22;42744;51.094;3.490;2022-12-10T11:35:11;3.00;99.90
56861;DHT22;42744;51.094;3.490;2022-12-10T11:40:49;3.10;99.90
56861;DHT22;42744;51.094;3.490;2022-12-10T11:43:22;3.10;99.90
56861;DHT22;42744;51.094;3.490;2022-12-10T11:51:30;3.30;99.90
56861;DHT22;42744;51.094;3.490;2022-12-10T11:57:07;3.40;99.90
56861;DHT22;42744;51.094;3.490;2022-12-10T12:03:06;3.80;99.90
56861;DHT22;42744;51.094;3.490;2022-12-10T12:05:57;3.90;99.90
56861;DHT22;42744;51.094;3.490;2022-12-10T12:11:23;3.80;99.90
56861;DHT22;42744;51.094;3.490;2022-12-10T12:14:14;4.00;99.90
56861;DHT22;42744;51.094;3.490;2022-12-10T12:17:12;4.10;99.90
56861;DHT22;42744;51.094;3.490;2022-12-10T12:19:51;4.10;99.90
56861;DHT22;42744;51.094;3.490;2022-12-10T12:22:31;4.20;99.90
56861;DHT22;42744;51.094;3.490;2022-12-10T12:25:08;4.40;99.90
56861;DHT22;42744;51.094;3.490;2022-12-10T12:27:46;4.40;99.90
56861;DHT22;42744;51.094;3.490;2022-12-10T12:30:21;4.40;99.90
56861;DHT22;42744;51.094;3.490;2022-12-10T12:33:10;4.50;99.90
56861;DHT22;42744;51.094;3.490;2022-12-10T12:35:53;4.60;99.90
56861;DHT22;42744;51.094;3.490;2022-12-10T12:41:17;4.90;99.90
56861;DHT22;42744;51.094;3.490;2022-12-10T12:44:00;4.70;99.90
56861;DHT22;42744;51.094;3.490;2022-12-10T12:46:43;4.60;99.90
56861;DHT22;42744;51.094;3.490;2022-12-10T12:49:32;4.80;99.90
56861;DHT22;42744;51.094;3.490;2022-12-10T12:54:41;5.00;99.90
56861;DHT22;42744;51.094;3.490;2022-12-10T12:57:26;5.10;99.90
56861;DHT22;42744;51.094;3.490;2022-12-10T13:05:46;5.30;99.90
56861;DHT22;42744;51.094;3.490;2022-12-10T13:10:53;5.30;99.90
56861;DHT22;42744;51.094;3.490;2022-12-10T13:19:25;5.10;99.90
56861;DHT22;42744;51.094;3.490;2022-12-10T13:34:44;4.70;99.90
56861;DHT22;42744;51.094;3.490;2022-12-10T13:37:18;4.70;99.90
56861;DHT22;42744;51.094;3.490;2022-12-10T13:39:54;4.70;99.90
56861;DHT22;42744;51.094;3.490;2022-12-10T13:42:28;4.70;99.90
56861;DHT22;42744;51.094;3.490;2022-12-10T13:47:49;4.80;99.90
56861;DHT22;42744;51.094;3.490;2022-12-10T13:53:20;4.70;99.90
56861;DHT22;42744;51.094;3.490;2022-12-10T14:01:16;4.70;99.90
56861;DHT22;42744;51.094;3.490;2022-12-10T14:06:18;4.50;99.90
56861;DHT22;42744;51.094;3.490;2022-12-10T14:11:22;4.40;99.90
56861;DHT22;42744;51.094;3.490;2022-12-10T14:13:54;4.40;99.90
56861;DHT22;42744;51.094;3.490;2022-12-10T14:16:23;4.20;99.90
56861;DHT22;42744;51.094;3.490;2022-12-10T14:19:02;4.20;99.90
56861;DHT22;42744;51.094;3.490;2022-12-10T14:21:36;4.20;99.90
56861;DHT22;42744;51.094;3.490;2022-12-10T14:24:05;4.20;99.90
56861;DHT22;42744;51.094;3.490;2022-12-10T14:26:33;4.20;99.90
56861;DHT22;42744;51.094;3.490;2022-12-10T14:31:36;4.30;99.90
56861;DHT22;42744;51.094;3.490;2022-12-10T14:34:06;4.30;99.90
56861;DHT22;42744;51.094;3.490;2022-12-10T14:36:44;4.40;99.90
56861;DHT22;42744;51.094;3.490;2022-12-10T14:39:19;4.40;99.90
56861;DHT22;42744;51.094;3.490;2022-12-10T14:41:48;4.20;99.90
56861;DHT22;42744;51.094;3.490;2022-12-10T14:44:16;4.00;99.90
56861;DHT22;42744;51.094;3.490;2022-12-10T14:46:46;3.90;99.90
56861;DHT22;42744;51.094;3.490;2022-12-10T14:49:19;3.70;99.90
56861;DHT22;42744;51.094;3.490;2022-12-10T14:51:46;3.60;99.90
56861;DHT22;42744;51.094;3.490;2022-12-10T14:56:53;3.50;99.90
56861;DHT22;42744;51.094;3.490;2022-12-10T14:59:24;3.40;99.90
56861;DHT22;42744;51.094;3.490;2022-12-10T15:01:57;3.30;99.90
56861;DHT22;42744;51.094;3.490;2022-12-10T15:04:29;3.30;99.90
56861;DHT22;42744;51.094;3.490;2022-12-10T15:07:03;3.10;99.90
56861;DHT22;42744;51.094;3.490;2022-12-10T15:09:31;3.00;99.90
56861;DHT22;42744;51.094;3.490;2022-12-10T15:11:59;3.00;99.90
56861;DHT22;42744;51.094;3.490;2022-12-10T15:14:27;3.00;99.90
56861;DHT22;42744;51.094;3.490;2022-12-10T15:16:55;2.90;99.90
56861;DHT22;42744;51.094;3.490;2022-12-10T15:19:24;2.80;99.90
56861;DHT22;42744;51.094;3.490;2022-12-10T15:21:56;2.70;99.90
56861;DHT22;42744;51.094;3.490;2022-12-10T15:24:35;2.70;99.90
56861;DHT22;42744;51.094;3.490;2022-12-10T15:27:02;2.60;99.90
56861;DHT22;42744;51.094;3.490;2022-12-10T15:29:39;2.60;99.90
56861;DHT22;42744;51.094;3.490;2022-12-10T15:34:58;2.50;99.90
56861;DHT22;42744;51.094;3.490;2022-12-10T15:37:34;2.50;99.90
56861;DHT22;42744;51.094;3.490;2022-12-10T15:40:03;2.50;99.90
56861;DHT22;42744;51.094;3.490;2022-12-10T15:42:42;2.40;99.90
56861;DHT22;42744;51.094;3.490;2022-12-10T15:45:26;2.30;99.90
56861;DHT22;42744;51.094;3.490;2022-12-10T15:47:57;2.30;99.90
56861;DHT22;42744;51.094;3.490;2022-12-10T15:50:26;2.30;99.90
56861;DHT22;42744;51.094;3.490;2022-12-10T15:52:54;2.30;99.90
56861;DHT22;42744;51.094;3.490;2022-12-10T15:55:20;2.20;99.90
56861;DHT22;42744;51.094;3.490;2022-12-10T15:57:46;2.20;99.90
56861;DHT22;42744;51.094;3.490;2022-12-10T16:00:20;2.20;99.90
56861;DHT22;42744;51.094;3.490;2022-12-10T16:02:58;2.10;99.90
56861;DHT22;42744;51.094;3.490;2022-12-10T16:05:28;2.10;99.90
56861;DHT22;42744;51.094;3.490;2022-12-10T16:07:58;2.10;99.90
56861;DHT22;42744;51.094;3.490;2022-12-10T16:10:26;2.10;99.90
56861;DHT22;42744;51.094;3.490;2022-12-10T16:15:26;2.10;99.90
56861;DHT22;42744;51.094;3.490;2022-12-10T16:17:53;2.10;99.90
56861;DHT22;42744;51.094;3.490;2022-12-10T16:30:39;2.00;99.90
56861;DHT22;42744;51.094;3.490;2022-12-10T16:33:06;1.90;99.90
56861;DHT22;42744;51.094;3.490;2022-12-10T16:35:33;1.90;99.90
56861;DHT22;42744;51.094;3.490;2022-12-10T16:37:59;1.90;99.90
56861;DHT22;42744;51.094;3.490;2022-12-10T16:40:27;1.90;99.90
56861;DHT22;42744;51.094;3.490;2022-12-10T16:42:54;1.90;99.90
56861;DHT22;42744;51.094;3.490;2022-12-10T16:45:49;1.80;99.90
56861;DHT22;42744;51.094;3.490;2022-12-10T16:48:16;1.80;99.90
56861;DHT22;42744;51.094;3.490;2022-12-10T16:50:44;1.80;99.90
56861;DHT22;42744;51.094;3.490;2022-12-10T16:53:28;1.80;99.90
56861;DHT22;42744;51.094;3.490;2022-12-10T16:55:55;1.80;99.90
56861;DHT22;42744;51.094;3.490;2022-12-10T16:58:22;1.80;99.90
56861;DHT22;42744;51.094;3.490;2022-12-10T17:00:50;1.80;99.90
56861;DHT22;42744;51.094;3.490;2022-12-10T17:03:25;1.80;99.90
56861;DHT22;42744;51.094;3.490;2022-12-10T17:06:01;1.80;99.90
56861;DHT22;42744;51.094;3.490;2022-12-10T17:08:32;1.80;99.90
56861;DHT22;42744;51.094;3.490;2022-12-10T17:10:58;1.80;99.90
56861;DHT22;42744;51.094;3.490;2022-12-10T17:13:43;1.80;99.90
56861;DHT22;42744;51.094;3.490;2022-12-10T17:16:13;1.80;99.90
56861;DHT22;42744;51.094;3.490;2022-12-10T17:18:40;1.80;99.90
56861;DHT22;42744;51.094;3.490;2022-12-10T17:21:06;1.80;99.90
56861;DHT22;42744;51.094;3.490;2022-12-10T17:23:33;1.80;99.90
56861;DHT22;42744;51.094;3.490;2022-12-10T17:25:59;1.70;99.90
56861;DHT22;42744;51.094;3.490;2022-12-10T17:28:27;1.80;99.90
56861;DHT22;42744;51.094;3.490;2022-12-10T17:30:53;1.80;99.90
56861;DHT22;42744;51.094;3.490;2022-12-10T17:33:21;1.80;99.90
56861;DHT22;42744;51.094;3.490;2022-12-10T17:35:50;1.80;99.90
56861;DHT22;42744;51.094;3.490;2022-12-10T17:38:21;1.80;99.90
56861;DHT22;42744;51.094;3.490;2022-12-10T17:40:47;1.70;99.90
56861;DHT22;42744;51.094;3.490;2022-12-10T17:43:13;1.70;99.90
56861;DHT22;42744;51.094;3.490;2022-12-10T17:45:40;1.80;99.90
56861;DHT22;42744;51.094;3.490;2022-12-10T17:48:13;1.80;99.90
56861;DHT22;42744;51.094;3.490;2022-12-10T17:50:40;1.70;99.90
56861;DHT22;42744;51.094;3.490;2022-12-10T17:53:09;1.70;99.90
56861;DHT22;42744;51.094;3.490;2022-12-10T17:55:38;1.70;99.90
56861;DHT22;42744;51.094;3.490;2022-12-10T17:58:04;1.70;99.90
56861;DHT22;42744;51.094;3.490;2022-12-10T18:00:33;1.70;99.90
56861;DHT22;42744;51.094;3.490;2022-12-10T18:03:00;1.70;99.90
56861;DHT22;42744;51.094;3.490;2022-12-10T18:05:26;1.60;99.90
56861;DHT22;42744;51.094;3.490;2022-12-10T18:07:53;1.50;99.90
56861;DHT22;42744;51.094;3.490;2022-12-10T18:10:28;1.50;99.90
56861;DHT22;42744;51.094;3.490;2022-12-10T18:12:55;1.50;99.90
56861;DHT22;42744;51.094;3.490;2022-12-10T18:15:23;1.50;99.90
56861;DHT22;42744;51.094;3.490;2022-12-10T18:17:49;1.50;99.90
56861;DHT22;42744;51.094;3.490;2022-12-10T18:20:28;1.40;99.90
56861;DHT22;42744;51.094;3.490;2022-12-10T18:22:56;1.40;99.90
56861;DHT22;42744;51.094;3.490;2022-12-10T18:25:22;1.30;99.90
56861;DHT22;42744;51.094;3.490;2022-12-10T18:27:49;1.30;99.90
56861;DHT22;42744;51.094;3.490;2022-12-10T18:30:21;1.30;99.90
56861;DHT22;42744;51.094;3.490;2022-12-10T18:32:48;1.20;99.90